createdAt,value
2022-07-25T00:00:03.098Z,24.75
2022-07-25T00:01:03.092Z,24.75
2022-07-25T00:02:03.132Z,24.63
2022-07-25T00:03:03.058Z,24.66
2022-07-25T00:04:03.567Z,24.66
2022-07-25T00:05:03.190Z,24.65
2022-07-25T00:06:03.026Z,24.65
2022-07-25T00:07:03.010Z,24.63
2022-07-25T00:08:02.999Z,24.62
2022-07-25T00:09:02.983Z,24.63
2022-07-25T00:10:02.981Z,24.62
2022-07-25T00:11:02.959Z,24.62
2022-07-25T00:12:02.954Z,24.62
2022-07-25T00:13:02.933Z,24.59
2022-07-25T00:14:03.220Z,24.60
2022-07-25T00:15:02.913Z,24.56
2022-07-25T00:16:03.013Z,24.58
2022-07-25T00:17:02.888Z,24.60
2022-07-25T00:18:02.872Z,24.59
2022-07-25T00:19:02.863Z,24.59
2022-07-25T00:20:02.850Z,24.48
2022-07-25T00:21:02.836Z,24.53
2022-07-25T00:22:02.825Z,24.51
2022-07-25T00:23:02.812Z,24.37
2022-07-25T00:24:03.179Z,24.34
2022-07-25T00:25:02.783Z,24.29
2022-07-25T00:26:02.777Z,24.28
2022-07-25T00:27:02.782Z,24.26
2022-07-25T00:28:02.750Z,24.25
2022-07-25T00:29:02.738Z,24.16
2022-07-25T00:30:02.721Z,24.15
2022-07-25T00:31:02.768Z,24.11
2022-07-25T00:32:02.701Z,23.94
2022-07-25T00:33:02.687Z,23.96
2022-07-25T00:34:03.093Z,23.94
2022-07-25T00:35:02.660Z,23.88
2022-07-25T00:36:02.646Z,23.86
2022-07-25T00:37:02.636Z,23.84
2022-07-25T00:38:02.622Z,23.54
2022-07-25T00:39:02.608Z,23.67
2022-07-25T00:40:02.597Z,23.66
2022-07-25T00:41:02.586Z,23.76
2022-07-25T00:42:02.572Z,23.78
2022-07-25T00:43:02.563Z,23.88
2022-07-25T00:44:02.876Z,23.88
2022-07-25T00:45:02.536Z,23.92
2022-07-25T00:46:02.572Z,24.01
2022-07-25T00:47:02.507Z,23.92
2022-07-25T00:48:02.498Z,23.96
2022-07-25T00:49:02.609Z,23.92
2022-07-25T00:50:02.468Z,23.88
2022-07-25T00:51:02.456Z,23.96
2022-07-25T00:52:02.445Z,23.94
2022-07-25T00:53:02.432Z,23.94
2022-07-25T00:54:02.674Z,23.94
2022-07-25T00:55:02.407Z,24.03
2022-07-25T00:56:02.396Z,24.04
2022-07-25T00:57:02.405Z,24.06
2022-07-25T00:58:02.379Z,23.98
2022-07-25T00:59:02.364Z,23.97
2022-07-25T01:00:02.343Z,23.92
2022-07-25T01:01:02.332Z,23.96
2022-07-25T01:02:04.039Z,23.97
2022-07-25T01:03:02.343Z,23.85
2022-07-25T01:04:02.411Z,23.78
2022-07-25T01:05:02.276Z,23.78
2022-07-25T01:06:02.269Z,23.71
2022-07-25T01:07:02.260Z,23.73
2022-07-25T01:08:02.236Z,23.78
2022-07-25T01:09:02.224Z,23.76
2022-07-25T01:10:02.220Z,23.85
2022-07-25T01:11:02.199Z,23.71
2022-07-25T01:12:02.190Z,23.76
2022-07-25T01:13:02.183Z,23.82
2022-07-25T01:14:02.406Z,23.76
2022-07-25T01:15:02.156Z,23.85
2022-07-25T01:16:02.265Z,23.85
2022-07-25T01:17:02.124Z,23.76
2022-07-25T01:18:02.111Z,23.76
2022-07-25T01:19:02.098Z,23.74
2022-07-25T01:20:02.089Z,23.79
2022-07-25T01:21:02.074Z,23.79
2022-07-25T01:22:02.064Z,23.79
2022-07-25T01:23:02.047Z,23.88
2022-07-25T01:24:02.177Z,23.84
2022-07-25T01:25:02.019Z,23.85
2022-07-25T01:26:02.022Z,23.85
2022-07-25T01:27:01.994Z,23.82
2022-07-25T01:28:01.982Z,23.74
2022-07-25T01:29:01.969Z,23.78
2022-07-25T01:30:01.954Z,23.74
2022-07-25T01:31:02.006Z,23.79
2022-07-25T01:32:01.932Z,23.78
2022-07-25T01:33:06.847Z,23.74
2022-07-25T01:34:01.908Z,23.69
2022-07-25T01:35:01.892Z,23.61
2022-07-25T01:36:01.881Z,23.60
2022-07-25T01:37:01.865Z,23.56
2022-07-25T01:38:01.855Z,23.49
2022-07-25T01:39:01.839Z,23.36
2022-07-25T01:40:01.832Z,23.42
2022-07-25T01:41:01.813Z,23.33
2022-07-25T01:42:01.805Z,23.36
2022-07-25T01:43:01.790Z,23.26
2022-07-25T01:44:01.777Z,23.26
2022-07-25T01:45:01.762Z,23.25
2022-07-25T01:46:01.809Z,23.22
2022-07-25T01:47:01.731Z,23.29
2022-07-25T01:48:01.722Z,23.36
2022-07-25T01:49:01.786Z,23.33
2022-07-25T01:50:01.696Z,23.34
2022-07-25T01:51:01.683Z,23.37
2022-07-25T01:52:01.671Z,23.36
2022-07-25T01:53:01.658Z,23.37
2022-07-25T01:54:01.647Z,23.39
2022-07-25T01:55:01.631Z,23.44
2022-07-25T01:56:02.872Z,23.36
2022-07-25T01:57:01.605Z,23.34
2022-07-25T01:58:01.597Z,23.34
2022-07-25T01:59:01.580Z,23.22
2022-07-25T02:00:01.566Z,23.23
2022-07-25T02:01:01.605Z,23.25
2022-07-25T02:02:01.664Z,23.23
2022-07-25T02:03:01.531Z,23.13
2022-07-25T02:04:01.632Z,23.25
2022-07-25T02:05:01.675Z,23.21
2022-07-25T02:06:01.492Z,23.11
2022-07-25T02:07:01.473Z,23.08
2022-07-25T02:08:01.459Z,23.14
2022-07-25T02:09:01.446Z,23.15
2022-07-25T02:10:01.441Z,23.17
2022-07-25T02:11:01.423Z,23.07
2022-07-25T02:12:01.409Z,23.10
2022-07-25T02:13:01.393Z,23.10
2022-07-25T02:14:01.392Z,23.14
2022-07-25T02:15:01.373Z,23.10
2022-07-25T02:16:01.365Z,23.04
2022-07-25T02:17:01.401Z,23.10
2022-07-25T02:18:01.338Z,23.10
2022-07-25T02:19:01.313Z,23.06
2022-07-25T02:20:01.304Z,23.14
2022-07-25T02:21:01.287Z,23.14
2022-07-25T02:22:01.281Z,23.07
2022-07-25T02:23:01.262Z,23.11
2022-07-25T02:24:01.248Z,22.96
2022-07-25T02:25:01.231Z,23.04
2022-07-25T02:26:01.224Z,23.01
2022-07-25T02:27:01.210Z,22.98
2022-07-25T02:28:01.197Z,23.01
2022-07-25T02:29:01.183Z,22.96
2022-07-25T02:30:01.170Z,22.99
2022-07-25T02:31:01.244Z,22.99
2022-07-25T02:32:01.140Z,23.06
2022-07-25T02:33:01.130Z,23.07
2022-07-25T02:34:01.123Z,23.06
2022-07-25T02:35:01.105Z,23.03
2022-07-25T02:36:01.098Z,23.04
2022-07-25T02:37:01.081Z,23.06
2022-07-25T02:38:01.060Z,22.95
2022-07-25T02:39:01.053Z,22.93
2022-07-25T02:40:01.042Z,22.88
2022-07-25T02:41:01.024Z,22.93
2022-07-25T02:42:01.011Z,22.92
2022-07-25T02:43:00.996Z,22.96
2022-07-25T02:44:00.985Z,23.01
2022-07-25T02:45:00.968Z,23.06
2022-07-25T02:46:01.018Z,23.04
2022-07-25T02:47:00.941Z,23.07
2022-07-25T02:48:00.940Z,23.01
2022-07-25T02:49:00.957Z,23.04
2022-07-25T02:50:00.907Z,23.11
2022-07-25T02:51:00.889Z,23.10
2022-07-25T02:52:00.882Z,23.08
2022-07-25T02:53:00.866Z,23.06
2022-07-25T02:54:00.848Z,23.07
2022-07-25T02:55:02.216Z,23.14
2022-07-25T02:56:00.821Z,23.04
2022-07-25T02:57:00.811Z,23.15
2022-07-25T02:58:00.798Z,23.15
2022-07-25T02:59:00.786Z,23.13
2022-07-25T03:00:00.776Z,23.13
2022-07-25T03:01:00.819Z,23.10
2022-07-25T03:02:00.744Z,23.13
2022-07-25T03:03:00.735Z,23.07
2022-07-25T03:04:00.869Z,23.01
2022-07-25T03:05:00.704Z,23.06
2022-07-25T03:06:00.687Z,22.99
2022-07-25T03:07:00.673Z,22.96
2022-07-25T03:08:00.663Z,22.99
2022-07-25T03:09:00.650Z,22.93
2022-07-25T03:10:00.635Z,22.99
2022-07-25T03:11:00.620Z,23.01
2022-07-25T03:12:00.614Z,22.95
2022-07-25T03:13:00.598Z,22.92
2022-07-25T03:14:00.583Z,23.04
2022-07-25T03:15:00.570Z,22.91
2022-07-25T03:16:00.553Z,22.88
2022-07-25T03:17:00.598Z,22.83
2022-07-25T03:18:00.531Z,22.81
2022-07-25T03:19:00.520Z,22.81
2022-07-25T03:20:00.509Z,22.77
2022-07-25T03:21:00.493Z,22.83
2022-07-25T03:22:00.480Z,22.86
2022-07-25T03:23:00.463Z,22.86
2022-07-25T03:24:00.449Z,22.91
2022-07-25T03:25:00.437Z,22.81
2022-07-25T03:26:00.422Z,22.88
2022-07-25T03:27:00.412Z,22.89
2022-07-25T03:28:00.396Z,22.81
2022-07-25T03:29:00.386Z,22.81
2022-07-25T03:30:00.365Z,22.81
2022-07-25T03:31:00.354Z,22.81
2022-07-25T03:32:00.434Z,22.85
2022-07-25T03:33:00.326Z,22.83
2022-07-25T03:34:00.311Z,22.81
2022-07-25T03:35:00.297Z,22.74
2022-07-25T03:36:00.283Z,22.80
2022-07-25T03:37:00.273Z,22.92
2022-07-25T03:38:00.260Z,22.81
2022-07-25T03:39:00.247Z,22.80
2022-07-25T03:40:00.234Z,22.81
2022-07-25T03:41:00.219Z,22.74
2022-07-25T03:42:00.208Z,22.80
2022-07-25T03:43:00.194Z,22.81
2022-07-25T03:44:00.180Z,22.76
2022-07-25T03:45:00.166Z,22.74
2022-07-25T03:46:00.260Z,22.77
2022-07-25T03:47:00.139Z,22.78
2022-07-25T03:48:00.132Z,22.91
2022-07-25T03:49:00.229Z,22.80
2022-07-25T03:50:00.131Z,22.78
2022-07-25T03:51:04.887Z,22.80
2022-07-25T03:52:00.074Z,22.76
2022-07-25T03:53:00.062Z,22.77
2022-07-25T03:54:00.043Z,22.77
2022-07-25T03:55:00.045Z,22.77
2022-07-25T03:56:00.014Z,22.77
2022-07-25T03:57:00.005Z,22.67
2022-07-25T03:57:59.989Z,22.85
2022-07-25T03:58:59.977Z,22.74
2022-07-25T03:59:59.964Z,22.73
2022-07-25T04:01:00.066Z,22.81
2022-07-25T04:02:00.011Z,22.81
2022-07-25T04:02:59.922Z,22.86
2022-07-25T04:03:59.908Z,22.83
2022-07-25T04:04:59.900Z,22.74
2022-07-25T04:05:59.883Z,22.83
2022-07-25T04:06:59.866Z,22.81
2022-07-25T04:07:59.909Z,22.76
2022-07-25T04:08:59.838Z,22.76
2022-07-25T04:09:59.828Z,22.74
2022-07-25T04:10:59.812Z,22.66
2022-07-25T04:11:59.809Z,22.61
2022-07-25T04:12:59.785Z,22.66
2022-07-25T04:13:59.773Z,22.61
2022-07-25T04:14:59.761Z,22.53
2022-07-25T04:15:59.746Z,22.46
2022-07-25T04:16:59.800Z,22.64
2022-07-25T04:17:59.720Z,22.51
2022-07-25T04:19:01.120Z,22.44
2022-07-25T04:19:59.689Z,22.56
2022-07-25T04:20:59.675Z,22.59
2022-07-25T04:21:59.673Z,22.62
2022-07-25T04:22:59.652Z,22.64
2022-07-25T04:23:59.638Z,22.66
2022-07-25T04:24:59.623Z,22.66
2022-07-25T04:25:59.608Z,22.74
2022-07-25T04:26:59.595Z,22.76
2022-07-25T04:27:59.589Z,22.74
2022-07-25T04:28:59.572Z,22.83
2022-07-25T04:29:59.557Z,22.83
2022-07-25T04:30:59.542Z,22.76
2022-07-25T04:31:59.673Z,22.70
2022-07-25T04:32:59.521Z,22.73
2022-07-25T04:33:59.513Z,22.61
2022-07-25T04:34:59.486Z,22.58
2022-07-25T04:35:59.473Z,22.49
2022-07-25T04:36:59.458Z,22.59
2022-07-25T04:37:59.445Z,22.58
2022-07-25T04:38:59.435Z,22.49
2022-07-25T04:39:59.419Z,22.64
2022-07-25T04:40:59.406Z,22.66
2022-07-25T04:41:59.400Z,22.52
2022-07-25T04:42:59.377Z,22.58
2022-07-25T04:43:59.366Z,22.51
2022-07-25T04:44:59.354Z,22.58
2022-07-25T04:45:59.392Z,22.51
2022-07-25T04:46:59.325Z,22.41
2022-07-25T04:47:59.312Z,22.53
2022-07-25T04:48:59.368Z,22.58
2022-07-25T04:49:59.288Z,22.59
2022-07-25T04:50:59.278Z,22.51
2022-07-25T04:51:59.255Z,22.67
2022-07-25T04:52:59.251Z,22.67
2022-07-25T04:53:59.235Z,22.64
2022-07-25T04:54:59.218Z,22.67
2022-07-25T04:55:59.204Z,22.64
2022-07-25T04:56:59.194Z,22.74
2022-07-25T04:57:59.179Z,22.58
2022-07-25T04:59:04.662Z,22.58
2022-07-25T04:59:59.155Z,22.67
2022-07-25T05:00:59.216Z,22.67
2022-07-25T05:01:59.188Z,22.61
2022-07-25T05:02:59.115Z,22.71
2022-07-25T05:03:59.094Z,22.76
2022-07-25T05:04:59.079Z,22.71
2022-07-25T05:05:59.068Z,22.77
2022-07-25T05:06:59.059Z,22.76
2022-07-25T05:07:59.042Z,22.88
2022-07-25T05:08:59.036Z,22.74
2022-07-25T05:09:59.016Z,22.81
2022-07-25T05:10:59.005Z,22.73
2022-07-25T05:11:58.989Z,22.81
2022-07-25T05:12:58.979Z,22.73
2022-07-25T05:13:58.963Z,22.85
2022-07-25T05:14:58.947Z,22.76
2022-07-25T05:15:58.947Z,22.81
2022-07-25T05:16:58.928Z,22.93
2022-07-25T05:17:58.912Z,23.01
2022-07-25T05:18:58.897Z,23.07
2022-07-25T05:19:58.878Z,23.10
2022-07-25T05:20:58.867Z,23.14
2022-07-25T05:21:58.856Z,23.21
2022-07-25T05:22:58.843Z,23.17
2022-07-25T05:23:58.828Z,23.11
2022-07-25T05:24:58.819Z,23.15
2022-07-25T05:25:58.807Z,23.01
2022-07-25T05:26:58.788Z,23.01
2022-07-25T05:27:58.773Z,23.03
2022-07-25T05:28:58.760Z,23.03
2022-07-25T05:29:58.760Z,22.99
2022-07-25T05:30:58.735Z,23.01
2022-07-25T05:31:58.799Z,23.06
2022-07-25T05:32:58.705Z,23.06
2022-07-25T05:33:58.695Z,23.03
2022-07-25T05:34:58.677Z,23.10
2022-07-25T05:35:58.666Z,23.07
2022-07-25T05:36:58.659Z,23.18
2022-07-25T05:37:58.644Z,23.28
2022-07-25T05:38:58.628Z,23.28
2022-07-25T05:39:58.613Z,23.28
2022-07-25T05:40:58.613Z,23.33
2022-07-25T05:41:58.584Z,23.36
2022-07-25T05:43:02.927Z,23.33
2022-07-25T05:43:58.565Z,23.28
2022-07-25T05:44:58.549Z,23.34
2022-07-25T05:45:58.535Z,23.34
2022-07-25T05:46:58.626Z,23.33
2022-07-25T05:47:58.505Z,23.44
2022-07-25T05:48:58.563Z,23.48
2022-07-25T05:49:58.487Z,23.46
2022-07-25T05:50:58.474Z,23.36
2022-07-25T05:51:58.458Z,23.37
2022-07-25T05:52:58.448Z,23.42
2022-07-25T05:53:58.436Z,23.60
2022-07-25T05:54:58.435Z,23.55
2022-07-25T05:55:58.403Z,23.73
2022-07-25T05:56:58.394Z,23.71
2022-07-25T05:57:58.379Z,23.74
2022-07-25T05:58:58.368Z,23.73
2022-07-25T05:59:58.353Z,23.69
2022-07-25T06:00:58.350Z,23.76
2022-07-25T06:01:58.514Z,23.70
2022-07-25T06:02:58.442Z,23.71
2022-07-25T06:03:58.306Z,23.74
2022-07-25T06:04:58.290Z,23.84
2022-07-25T06:05:58.276Z,23.79
2022-07-25T06:06:58.271Z,23.91
2022-07-25T06:07:58.251Z,23.92
2022-07-25T06:08:58.239Z,23.92
2022-07-25T06:09:58.228Z,23.98
2022-07-25T06:10:58.218Z,24.06
2022-07-25T06:12:01.047Z,24.10
2022-07-25T06:12:58.184Z,24.22
2022-07-25T06:13:58.172Z,24.23
2022-07-25T06:14:58.156Z,24.25
2022-07-25T06:15:58.207Z,24.33
2022-07-25T06:16:58.135Z,24.36
2022-07-25T06:17:58.125Z,24.33
2022-07-25T06:18:58.111Z,24.43
2022-07-25T06:19:58.097Z,24.53
2022-07-25T06:20:58.088Z,24.51
2022-07-25T06:21:58.076Z,24.56
2022-07-25T06:22:58.057Z,24.56
2022-07-25T06:23:58.045Z,24.63
2022-07-25T06:24:58.041Z,24.62
2022-07-25T06:25:58.018Z,24.71
2022-07-25T06:26:58.013Z,24.75
2022-07-25T06:27:58.002Z,24.74
2022-07-25T06:28:57.983Z,24.75
2022-07-25T06:29:57.973Z,24.78
2022-07-25T06:30:58.148Z,24.93
2022-07-25T06:31:58.026Z,24.90
2022-07-25T06:32:57.941Z,24.93
2022-07-25T06:33:57.919Z,24.97
2022-07-25T06:34:57.912Z,24.99
2022-07-25T06:35:57.902Z,24.94
2022-07-25T06:36:57.884Z,24.96
2022-07-25T06:37:57.872Z,25.08
2022-07-25T06:38:57.863Z,25.03
2022-07-25T06:39:57.844Z,25.11
2022-07-25T06:40:57.841Z,25.08
2022-07-25T06:41:57.818Z,25.16
2022-07-25T06:42:57.814Z,25.18
2022-07-25T06:43:57.798Z,25.27
2022-07-25T06:44:57.787Z,25.31
2022-07-25T06:45:57.772Z,25.43
2022-07-25T06:46:57.888Z,25.46
2022-07-25T06:47:57.751Z,25.49
2022-07-25T06:48:57.867Z,25.58
2022-07-25T06:49:57.728Z,25.56
2022-07-25T06:50:57.712Z,25.73
2022-07-25T06:51:57.697Z,25.71
2022-07-25T06:52:57.694Z,25.81
2022-07-25T06:53:57.677Z,25.66
2022-07-25T06:54:57.671Z,25.77
2022-07-25T06:55:57.651Z,25.85
2022-07-25T06:56:57.638Z,25.95
2022-07-25T06:57:57.627Z,25.93
2022-07-25T06:58:57.624Z,26.08
2022-07-25T06:59:57.613Z,25.93
2022-07-25T07:00:57.680Z,26.08
2022-07-25T07:01:57.581Z,26.20
2022-07-25T07:02:58.148Z,26.21
2022-07-25T07:03:57.559Z,26.36
2022-07-25T07:04:57.543Z,26.46
2022-07-25T07:05:57.537Z,26.60
2022-07-25T07:06:57.524Z,26.63
2022-07-25T07:07:57.510Z,26.67
2022-07-25T07:08:57.504Z,26.65
2022-07-25T07:09:57.491Z,26.82
2022-07-25T07:10:57.480Z,26.80
2022-07-25T07:11:57.465Z,27.00
2022-07-25T07:12:57.463Z,27.04
2022-07-25T07:13:57.443Z,27.10
2022-07-25T07:14:57.434Z,27.16
2022-07-25T07:15:57.450Z,27.22
2022-07-25T07:16:57.414Z,27.23
2022-07-25T07:17:57.398Z,27.30
2022-07-25T07:18:57.386Z,27.08
2022-07-25T07:19:57.372Z,27.19
2022-07-25T07:20:57.360Z,27.15
2022-07-25T07:21:57.353Z,27.20
2022-07-25T07:22:57.341Z,27.41
2022-07-25T07:23:57.332Z,27.30
2022-07-25T07:24:57.327Z,27.41
2022-07-25T07:25:57.313Z,27.49
2022-07-25T07:26:57.303Z,27.47
2022-07-25T07:27:57.289Z,27.60
2022-07-25T07:28:57.278Z,27.63
2022-07-25T07:29:57.272Z,27.61
2022-07-25T07:31:57.324Z,27.68
2022-07-25T07:32:57.239Z,27.69
2022-07-25T07:33:57.226Z,27.75
2022-07-25T07:34:57.215Z,27.70
2022-07-25T07:35:57.332Z,27.70
2022-07-25T07:36:57.200Z,27.64
2022-07-25T07:37:57.189Z,27.70
2022-07-25T07:38:57.178Z,27.83
2022-07-25T07:39:57.168Z,27.88
2022-07-25T07:40:57.158Z,27.98
2022-07-25T07:41:57.143Z,27.97
2022-07-25T07:42:57.133Z,27.95
2022-07-25T07:43:57.120Z,27.98
2022-07-25T07:44:57.129Z,28.10
2022-07-25T07:45:57.099Z,27.87
2022-07-25T07:46:57.223Z,27.82
2022-07-25T07:47:57.115Z,27.78
2022-07-25T07:48:57.216Z,27.95
2022-07-25T07:49:57.056Z,27.94
2022-07-25T07:50:57.050Z,27.93
2022-07-25T07:51:57.041Z,27.93
2022-07-25T07:52:57.034Z,28.01
2022-07-25T07:53:57.019Z,28.10
2022-07-25T07:54:59.398Z,28.12
2022-07-25T07:55:56.997Z,28.12
2022-07-25T07:56:56.988Z,28.05
2022-07-25T07:57:56.974Z,28.07
2022-07-25T07:58:56.967Z,28.09
2022-07-25T07:59:56.955Z,28.07
2022-07-25T08:00:56.943Z,28.13
2022-07-25T08:01:57.100Z,28.07
2022-07-25T08:02:57.109Z,28.27
2022-07-25T08:03:56.918Z,28.19
2022-07-25T08:04:56.908Z,28.17
2022-07-25T08:05:56.899Z,28.22
2022-07-25T08:06:56.886Z,28.24
2022-07-25T08:07:56.873Z,28.35
2022-07-25T08:08:56.864Z,28.46
2022-07-25T08:09:56.858Z,28.35
2022-07-25T08:10:58.969Z,28.49
2022-07-25T08:11:56.836Z,28.49
2022-07-25T08:12:56.822Z,28.59
2022-07-25T08:13:56.815Z,28.53
2022-07-25T08:14:56.803Z,28.53
2022-07-25T08:15:56.876Z,28.64
2022-07-25T08:16:56.786Z,28.66
2022-07-25T08:17:56.770Z,28.79
2022-07-25T08:18:56.767Z,28.86
2022-07-25T08:20:05.521Z,28.89
2022-07-25T08:20:56.741Z,28.77
2022-07-25T08:21:56.732Z,28.83
2022-07-25T08:22:56.896Z,28.86
2022-07-25T08:23:56.710Z,28.77
2022-07-25T08:24:56.700Z,28.69
2022-07-25T08:25:56.701Z,28.75
2022-07-25T08:26:56.681Z,28.75
2022-07-25T08:27:56.670Z,28.77
2022-07-25T08:29:17.518Z,28.68
2022-07-25T08:29:56.657Z,28.71
2022-07-25T08:30:56.683Z,28.75
2022-07-25T08:31:56.631Z,28.64
2022-07-25T08:32:56.620Z,28.62
2022-07-25T08:33:56.614Z,28.71
2022-07-25T08:34:56.601Z,28.62
2022-07-25T08:35:56.596Z,28.64
2022-07-25T08:36:56.585Z,28.49
2022-07-25T08:37:56.574Z,28.56
2022-07-25T08:38:56.564Z,28.53
2022-07-25T08:39:56.557Z,28.62
2022-07-25T08:40:56.553Z,28.43
2022-07-25T08:41:56.532Z,28.38
2022-07-25T08:42:56.529Z,28.38
2022-07-25T08:43:56.513Z,28.47
2022-07-25T08:44:56.504Z,28.44
2022-07-25T08:45:56.574Z,28.49
2022-07-25T08:46:56.593Z,28.53
2022-07-25T08:47:56.478Z,28.64
2022-07-25T08:48:56.533Z,28.62
2022-07-25T08:50:00.848Z,28.54
2022-07-25T08:50:56.444Z,28.54
2022-07-25T08:51:56.429Z,28.57
2022-07-25T08:53:16.201Z,28.56
2022-07-25T08:53:56.410Z,28.53
2022-07-25T08:54:56.403Z,28.50
2022-07-25T08:55:56.385Z,28.46
2022-07-25T08:56:56.390Z,28.56
2022-07-25T08:57:56.380Z,28.47
2022-07-25T08:58:56.363Z,28.62
2022-07-25T08:59:56.350Z,28.64
2022-07-25T09:00:56.342Z,28.75
2022-07-25T09:01:56.399Z,28.79
2022-07-25T09:02:56.411Z,28.90
2022-07-25T09:03:56.305Z,28.89
2022-07-25T09:04:56.298Z,28.91
2022-07-25T09:05:56.287Z,28.94
2022-07-25T09:06:56.283Z,29.02
2022-07-25T09:07:56.268Z,29.00
2022-07-25T09:08:56.267Z,29.17
2022-07-25T09:09:56.251Z,29.09
2022-07-25T09:10:56.243Z,29.19
2022-07-25T09:11:56.237Z,29.29
2022-07-25T09:12:56.222Z,29.46
2022-07-25T09:13:56.228Z,29.61
2022-07-25T09:14:56.201Z,29.59
2022-07-25T09:15:56.248Z,29.66
2022-07-25T09:16:56.185Z,29.78
2022-07-25T09:17:56.172Z,29.80
2022-07-25T09:18:56.165Z,29.68
2022-07-25T09:19:56.151Z,29.93
2022-07-25T09:20:56.148Z,30.45
2022-07-25T09:21:56.134Z,30.88
2022-07-25T09:22:56.131Z,31.27
2022-07-25T09:23:56.119Z,31.24
2022-07-25T09:24:56.114Z,31.94
2022-07-25T09:25:56.111Z,32.45
2022-07-25T09:26:56.190Z,32.35
2022-07-25T09:27:56.087Z,32.35
2022-07-25T09:28:56.088Z,32.32
2022-07-25T09:29:56.083Z,32.23
2022-07-25T09:30:56.167Z,32.16
2022-07-25T09:31:56.067Z,31.67
2022-07-25T09:32:56.071Z,31.79
2022-07-25T09:33:56.053Z,31.52
2022-07-25T09:34:56.049Z,31.81
2022-07-25T09:35:56.046Z,31.39
2022-07-25T09:36:56.036Z,31.33
2022-07-25T09:37:56.040Z,31.66
2022-07-25T09:38:56.033Z,32.05
2022-07-25T09:39:56.026Z,32.32
2022-07-25T09:40:56.021Z,32.42
2022-07-25T09:41:56.010Z,32.54
2022-07-25T09:42:56.006Z,32.73
2022-07-25T09:43:55.997Z,32.27
2022-07-25T09:44:55.991Z,31.78
2022-07-25T09:45:56.022Z,31.84
2022-07-25T09:46:55.982Z,32.39
2022-07-25T09:47:55.974Z,32.91
2022-07-25T09:48:56.031Z,32.98
2022-07-25T09:49:55.966Z,33.35
2022-07-25T09:50:55.959Z,33.06
2022-07-25T09:51:55.950Z,32.53
2022-07-25T09:52:55.948Z,32.57
2022-07-25T09:53:55.942Z,33.30
2022-07-25T09:54:55.941Z,33.88
2022-07-25T09:55:55.931Z,33.70
2022-07-25T09:56:55.927Z,34.15
2022-07-25T09:57:55.939Z,34.29
2022-07-25T09:58:55.917Z,35.19
2022-07-25T09:59:55.911Z,34.20
2022-07-25T10:00:55.906Z,34.62
2022-07-25T10:01:56.006Z,35.57
2022-07-25T10:02:55.972Z,34.91
2022-07-25T10:03:55.893Z,34.53
2022-07-25T10:04:55.888Z,34.53
2022-07-25T10:05:55.879Z,35.13
2022-07-25T10:06:55.884Z,35.85
2022-07-25T10:07:55.870Z,34.95
2022-07-25T10:08:55.867Z,34.18
2022-07-25T10:09:55.860Z,34.03
2022-07-25T10:10:55.858Z,34.19
2022-07-25T10:11:55.854Z,33.47
2022-07-25T10:12:55.857Z,33.91
2022-07-25T10:13:55.842Z,33.42
2022-07-25T10:14:55.838Z,33.45
2022-07-25T10:15:55.840Z,32.95
2022-07-25T10:16:55.947Z,32.94
2022-07-25T10:17:55.822Z,32.94
2022-07-25T10:18:55.821Z,33.37
2022-07-25T10:19:58.870Z,33.13
2022-07-25T10:20:55.808Z,32.87
2022-07-25T10:21:55.811Z,33.62
2022-07-25T10:22:57.309Z,34.32
2022-07-25T10:23:55.795Z,34.45
2022-07-25T10:24:55.783Z,33.57
2022-07-25T10:25:55.779Z,33.52
2022-07-25T10:26:55.772Z,33.48
2022-07-25T10:27:55.766Z,33.12
2022-07-25T10:28:55.761Z,32.94
2022-07-25T10:29:55.757Z,32.94
2022-07-25T10:30:55.831Z,33.12
2022-07-25T10:31:55.742Z,33.27
2022-07-25T10:32:55.743Z,33.37
2022-07-25T10:33:55.734Z,33.54
2022-07-25T10:34:55.723Z,33.64
2022-07-25T10:35:55.721Z,32.94
2022-07-25T10:36:55.715Z,32.58
2022-07-25T10:37:55.710Z,32.58
2022-07-25T10:38:55.702Z,32.43
2022-07-25T10:39:55.695Z,32.24
2022-07-25T10:40:55.689Z,32.16
2022-07-25T10:41:55.683Z,32.01
2022-07-25T10:42:55.675Z,31.61
2022-07-25T10:43:55.668Z,31.42
2022-07-25T10:44:55.663Z,31.42
2022-07-25T10:45:55.692Z,31.49
2022-07-25T10:46:55.647Z,31.46
2022-07-25T10:47:55.650Z,31.42
2022-07-25T10:48:55.722Z,31.42
2022-07-25T10:50:14.554Z,31.42
2022-07-25T10:50:56.758Z,31.60
2022-07-25T10:51:55.616Z,31.67
2022-07-25T10:52:55.607Z,31.61
2022-07-25T10:53:55.597Z,31.63
2022-07-25T10:54:55.592Z,31.56
2022-07-25T10:56:05.425Z,31.38
2022-07-25T10:56:55.597Z,31.29
2022-07-25T10:58:16.633Z,31.12
2022-07-25T10:58:55.564Z,31.11
2022-07-25T10:59:55.552Z,31.14
2022-07-25T11:00:55.598Z,31.04
2022-07-25T11:01:55.537Z,30.99
2022-07-25T11:02:55.609Z,30.96
2022-07-25T11:03:55.520Z,30.86
2022-07-25T11:04:55.512Z,30.92
2022-07-25T11:05:55.510Z,30.89
2022-07-25T11:06:55.497Z,30.85
2022-07-25T11:08:20.183Z,30.85
2022-07-25T11:08:55.481Z,30.93
2022-07-25T11:09:55.473Z,30.96
2022-07-25T11:10:55.468Z,31.11
2022-07-25T11:11:55.456Z,31.07
2022-07-25T11:12:55.453Z,31.33
2022-07-25T11:13:55.436Z,31.41
2022-07-25T11:14:55.432Z,31.61
2022-07-25T11:15:55.431Z,31.94
2022-07-25T11:16:55.498Z,32.11
2022-07-25T11:17:55.411Z,32.43
2022-07-25T11:18:55.399Z,32.33
2022-07-25T11:19:55.440Z,32.11
2022-07-25T11:20:55.385Z,32.16
2022-07-25T11:21:55.373Z,32.02
2022-07-25T11:22:55.374Z,32.31
2022-07-25T11:23:55.366Z,32.45
2022-07-25T11:24:55.358Z,32.73
2022-07-25T11:25:55.346Z,32.77
2022-07-25T11:26:55.346Z,32.80
2022-07-25T11:27:55.342Z,32.91
2022-07-25T11:28:55.325Z,32.82
2022-07-25T11:29:55.323Z,33.10
2022-07-25T11:30:55.315Z,32.72
2022-07-25T11:31:55.389Z,32.38
2022-07-25T11:32:55.304Z,32.57
2022-07-25T11:33:55.284Z,32.76
2022-07-25T11:34:55.289Z,32.95
2022-07-25T11:35:55.268Z,32.85
2022-07-25T11:36:55.266Z,32.80
2022-07-25T11:37:55.257Z,32.85
2022-07-25T11:38:55.253Z,32.97
2022-07-25T11:39:56.242Z,32.87
2022-07-25T11:40:55.235Z,32.53
2022-07-25T11:41:55.227Z,32.63
2022-07-25T11:42:55.220Z,32.64
2022-07-25T11:43:55.231Z,32.88
2022-07-25T11:44:55.208Z,33.09
2022-07-25T11:45:55.254Z,33.24
2022-07-25T11:46:55.193Z,33.36
2022-07-25T11:47:55.185Z,33.16
2022-07-25T11:48:55.281Z,33.03
2022-07-25T11:49:55.174Z,33.01
2022-07-25T11:50:55.164Z,32.60
2022-07-25T11:51:55.160Z,32.51
2022-07-25T11:52:55.152Z,32.69
2022-07-25T11:53:55.138Z,32.85
2022-07-25T11:54:55.149Z,32.83
2022-07-25T11:55:55.128Z,32.57
2022-07-25T11:56:55.126Z,32.60
2022-07-25T11:57:55.112Z,32.48
2022-07-25T11:58:55.114Z,32.21
2022-07-25T11:59:55.112Z,32.35
2022-07-25T12:00:55.092Z,32.26
2022-07-25T12:01:55.117Z,32.01
2022-07-25T12:02:55.214Z,32.02
2022-07-25T12:03:55.200Z,32.14
2022-07-25T12:04:55.065Z,32.32
2022-07-25T12:05:55.066Z,32.45
2022-07-25T12:06:55.055Z,32.57
2022-07-25T12:07:55.044Z,32.60
2022-07-25T12:08:55.035Z,32.16
2022-07-25T12:09:55.041Z,32.13
2022-07-25T12:10:55.016Z,32.17
2022-07-25T12:11:55.016Z,32.14
2022-07-25T12:12:55.004Z,32.09
2022-07-25T12:13:54.996Z,32.20
2022-07-25T12:14:54.991Z,32.19
2022-07-25T12:15:54.979Z,32.27
2022-07-25T12:16:55.043Z,32.42
2022-07-25T12:17:54.981Z,32.33
2022-07-25T12:18:54.954Z,32.35
2022-07-25T12:19:54.954Z,32.42
2022-07-25T12:20:54.943Z,32.42
2022-07-25T12:21:54.933Z,32.51
2022-07-25T12:23:54.922Z,32.42
2022-07-25T12:24:54.911Z,32.26
2022-07-25T12:25:54.902Z,31.89
2022-07-25T12:26:54.895Z,31.90
2022-07-25T12:27:54.889Z,31.76
2022-07-25T12:28:54.897Z,31.84
2022-07-25T12:29:54.877Z,31.61
2022-07-25T12:30:56.829Z,31.87
2022-07-25T12:31:55.201Z,32.04
2022-07-25T12:32:54.852Z,32.14
2022-07-25T12:33:54.859Z,32.06
2022-07-25T12:34:54.838Z,31.87
2022-07-25T12:35:54.827Z,31.90
2022-07-25T12:36:54.827Z,31.78
2022-07-25T12:37:54.816Z,31.89
2022-07-25T12:38:54.806Z,31.61
2022-07-25T12:39:54.794Z,31.39
2022-07-25T12:40:54.788Z,31.34
2022-07-25T12:41:54.783Z,31.27
2022-07-25T12:42:54.777Z,31.29
2022-07-25T12:43:54.768Z,31.26
2022-07-25T12:44:54.764Z,31.37
2022-07-25T12:45:54.834Z,31.26
2022-07-25T12:46:54.803Z,31.19
2022-07-25T12:47:54.734Z,31.37
2022-07-25T12:48:54.789Z,31.30
2022-07-25T12:49:54.718Z,31.22
2022-07-25T12:50:54.713Z,31.27
2022-07-25T12:51:58.018Z,31.39
2022-07-25T12:52:54.691Z,31.42
2022-07-25T12:53:54.683Z,31.63